Time;durP1;ratioP1;P1;durP2;ratioP2;P2;SDS_P1;SDS_P2;PMS_P1;PMS_P2;Temp;Humidity;BMP_temperature;BMP_pressure;BME280_temperature;BME280_humidity;BME280_pressure;Samples;Min_cycle;Max_cycle;Signal;HPM_P1;HPM_P2
2021/05/05 04:58:21;;;;;;;1.05;0.73;;;12.40;57.80;;;;;;5065731;28;20102;-68
2021/05/05 05:00:47;;;;;;;1.25;0.90;;;12.20;57.80;;;;;;5052829;28;20029;-68
2021/05/05 05:03:12;;;;;;;2.13;1.13;;;12.00;57.40;;;;;;5053192;28;20040;-68
2021/05/05 05:05:38;;;;;;;2.15;0.85;;;12.00;57.60;;;;;;5055439;28;20032;-68
2021/05/05 05:08:04;;;;;;;0.90;0.80;;;12.10;57.40;;;;;;5058076;28;20029;-68
2021/05/05 05:10:30;;;;;;;1.58;0.70;;;12.10;56.60;;;;;;5054872;28;20032;-67
2021/05/05 05:12:55;;;;;;;1.30;0.80;;;12.00;56.40;;;;;;5053428;28;20048;-69
2021/05/05 05:15:22;;;;;;;1.45;0.75;;;12.10;56.40;;;;;;5052343;28;20065;-69
2021/05/05 05:17:48;;;;;;;2.15;0.80;;;12.20;56.20;;;;;;5054427;28;20024;-69
2021/05/05 05:20:14;;;;;;;1.55;0.70;;;12.20;56.00;;;;;;5059094;28;20028;-71
2021/05/05 05:22:40;;;;;;;3.00;0.90;;;12.40;56.00;;;;;;5067334;28;20488;-69
2021/05/05 05:25:10;;;;;;;2.58;1.63;;;12.30;56.30;;;;;;5072305;28;20063;-67
2021/05/05 05:27:37;;;;;;;1.83;0.65;;;13.20;62.70;;;;;;5057938;28;20081;-65
2021/05/05 05:30:06;;;;;;;5.50;1.27;;;14.30;63.90;;;;;;5072100;28;20040;-67
2021/05/05 05:32:32;;;;;;;0.80;0.70;;;15.00;58.20;;;;;;5072202;28;20508;-69
2021/05/05 05:34:58;;;;;;;2.60;0.70;;;14.60;52.60;;;;;;5072290;28;20020;-67
2021/05/05 05:37:23;;;;;;;2.22;0.90;;;13.70;52.00;;;;;;5065681;28;20032;-67
2021/05/05 05:39:49;;;;;;;1.00;0.60;;;13.50;52.30;;;;;;5071821;28;20074;-67
2021/05/05 05:42:15;;;;;;;2.13;0.65;;;13.20;52.90;;;;;;5072088;28;20094;-68
2021/05/05 05:44:40;;;;;;;2.15;0.93;;;13.30;53.30;;;;;;5068524;28;20032;-68
2021/05/05 05:47:06;;;;;;;3.38;0.57;;;13.00;53.10;;;;;;5067263;28;20016;-67
2021/05/05 05:49:32;;;;;;;1.42;0.70;;;12.70;52.40;;;;;;5071851;28;20040;-68
2021/05/05 05:51:58;;;;;;;3.65;0.60;;;12.60;52.80;;;;;;5071746;28;20383;-68
2021/05/05 05:54:24;;;;;;;1.35;0.77;;;12.40;53.20;;;;;;5063246;28;20036;-68
2021/05/05 05:56:50;;;;;;;2.15;0.70;;;12.40;53.30;;;;;;5071452;28;20016;-68
2021/05/05 05:59:16;;;;;;;5.20;0.85;;;12.30;53.10;;;;;;5071921;28;20033;-68
2021/05/05 06:01:41;;;;;;;0.77;0.70;;;12.10;52.50;;;;;;5067918;28;20021;-68
2021/05/05 06:04:07;;;;;;;1.55;1.45;;;12.10;52.40;;;;;;5067214;28;20024;-68
2021/05/05 06:06:33;;;;;;;3.92;1.02;;;11.60;53.50;;;;;;5071704;28;20027;-68
2021/05/05 06:08:58;;;;;;;1.75;0.80;;;12.00;54.20;;;;;;5071441;28;20043;-68
2021/05/05 06:11:24;;;;;;;0.98;0.73;;;12.10;53.50;;;;;;5062823;28;20025;-68
2021/05/05 06:13:50;;;;;;;3.25;0.90;;;12.20;52.60;;;;;;5071434;28;20093;-68
2021/05/05 06:16:18;;;;;;;9.73;0.88;;;12.10;51.70;;;;;;5068440;28;20359;-69
2021/05/05 06:18:44;;;;;;;2.35;0.77;;;11.80;52.70;;;;;;5057960;28;20031;-70
2021/05/05 06:21:10;;;;;;;4.07;0.82;;;11.70;52.10;;;;;;5067918;28;20103;-69
2021/05/05 06:23:36;;;;;;;0.70;0.70;;;11.70;52.00;;;;;;5052136;28;20417;-70
2021/05/05 06:26:01;;;;;;;0.95;0.80;;;12.30;58.10;;;;;;5050260;28;20027;-68
2021/05/05 06:28:27;;;;;;;2.33;0.60;;;12.40;52.60;;;;;;5051690;28;20051;-68
2021/05/05 06:30:54;;;;;;;3.15;0.80;;;11.90;52.50;;;;;;5054418;28;20033;-71
2021/05/05 06:33:20;;;;;;;1.60;0.80;;;11.70;52.70;;;;;;5052730;28;20013;-69
2021/05/05 06:35:46;;;;;;;1.00;0.85;;;11.70;52.80;;;;;;5052165;28;20025;-68
2021/05/05 06:38:12;;;;;;;0.93;0.70;;;11.70;52.70;;;;;;5051670;28;20101;-68
2021/05/05 06:40:38;;;;;;;0.57;0.50;;;11.70;52.10;;;;;;5051204;28;20032;-68
2021/05/05 06:43:03;;;;;;;1.80;0.80;;;11.80;52.10;;;;;;5060059;28;20025;-68
2021/05/05 06:45:29;;;;;;;3.10;0.80;;;11.70;51.90;;;;;;5071096;28;20028;-68
2021/05/05 06:47:55;;;;;;;1.83;0.77;;;11.70;51.80;;;;;;5058228;28;20067;-68
2021/05/05 06:50:22;;;;;;;1.65;0.80;;;11.60;51.50;;;;;;5065597;28;20056;-67
2021/05/05 06:52:48;;;;;;;2.45;0.70;;;11.30;51.80;;;;;;5070895;28;20017;-68
2021/05/05 06:55:14;;;;;;;1.67;0.80;;;11.20;52.30;;;;;;5070012;28;20024;-67
2021/05/05 06:57:40;;;;;;;3.03;0.98;;;10.90;51.50;;;;;;5071013;28;20136;-67
2021/05/05 07:00:07;;;;;;;2.38;0.85;;;10.60;52.30;;;;;;5070194;28;20021;-67
2021/05/05 07:02:33;;;;;;;1.65;0.85;;;10.40;52.80;;;;;;5070781;28;20037;-66
2021/05/05 07:05:00;;;;;;;2.80;0.80;;;10.60;53.00;;;;;;5070744;28;20127;-67
2021/05/05 07:07:29;;;;;;;1.77;0.90;;;10.80;53.00;;;;;;5071297;28;20111;-68
2021/05/05 07:09:55;;;;;;;29.58;2.17;;;10.90;52.60;;;;;;5069365;28;20074;-67
2021/05/05 07:12:21;;;;;;;2.15;0.90;;;10.90;53.70;;;;;;5056092;28;20681;-68
2021/05/05 07:14:47;;;;;;;3.80;0.85;;;10.70;52.20;;;;;;5069414;28;20052;-70
2021/05/05 07:17:13;;;;;;;23.15;1.73;;;10.50;53.30;;;;;;5070567;28;20024;-69
2021/05/05 07:19:39;;;;;;;5.35;1.10;;;10.30;53.70;;;;;;5065943;28;20624;-70
2021/05/05 07:22:05;;;;;;;2.17;0.70;;;10.10;54.40;;;;;;5058295;28;20021;-70
2021/05/05 07:24:31;;;;;;;2.80;0.80;;;9.70;54.30;;;;;;5070724;28;20510;-69
2021/05/05 07:26:57;;;;;;;2.15;0.90;;;9.60;55.30;;;;;;5058469;28;20029;-70
2021/05/05 07:29:23;;;;;;;2.30;0.70;;;9.60;55.20;;;;;;5054875;28;20040;-70
2021/05/05 07:31:49;;;;;;;2.75;1.10;;;9.60;55.70;;;;;;5070527;28;20019;-70
2021/05/05 07:34:15;;;;;;;3.42;1.00;;;9.40;55.60;;;;;;5070403;28;20103;-70
2021/05/05 07:36:47;;;;;;;11.38;1.38;;;9.40;55.80;;;;;;5065793;28;20028;-69
2021/05/05 07:49:56;;;;;;;3.35;1.02;;;8.60;58.70;;;;;;5070492;28;20052;-69
2021/05/05 07:52:22;;;;;;;8.07;1.00;;;8.60;58.90;;;;;;5063773;28;20033;-69
2021/05/05 07:54:48;;;;;;;2.50;0.77;;;8.40;59.50;;;;;;5074041;28;20023;-69
2021/05/05 07:57:15;;;;;;;14.63;1.50;;;8.30;59.50;;;;;;5073754;28;20048;-70
2021/05/05 07:59:41;;;;;;;6.20;1.10;;;8.30;59.90;;;;;;5064275;28;20025;-70
2021/05/05 08:02:07;;;;;;;0.90;0.60;;;8.00;60.60;;;;;;5053832;28;20021;-69
2021/05/05 08:04:33;;;;;;;3.40;0.80;;;8.20;61.40;;;;;;5066642;28;20027;-69
2021/05/05 08:07:00;;;;;;;8.23;1.48;;;8.30;61.70;;;;;;5073784;28;20013;-69
2021/05/05 08:09:26;;;;;;;2.05;0.88;;;8.40;61.50;;;;;;5073811;28;20041;-69
2021/05/05 08:11:53;;;;;;;3.03;0.82;;;8.20;61.40;;;;;;5073805;28;20017;-69
2021/05/05 08:14:20;;;;;;;7.82;1.27;;;8.00;61.70;;;;;;5073565;28;20024;-68
2021/05/05 08:16:46;;;;;;;2.15;0.80;;;7.90;62.10;;;;;;5073983;28;20055;-69
2021/05/05 08:19:12;;;;;;;5.90;1.27;;;7.90;62.20;;;;;;5073851;28;20024;-67
2021/05/05 08:21:40;;;;;;;2.72;1.05;;;9.50;86.60;;;;;;5073640;28;20112;-68
2021/05/05 08:24:06;;;;;;;3.78;0.88;;;10.70;63.90;;;;;;5067114;28;20056;-68
2021/05/05 08:26:32;;;;;;;1.30;0.80;;;9.80;60.00;;;;;;5065215;28;20035;-68
2021/05/05 08:28:58;;;;;;;3.65;1.05;;;9.00;60.70;;;;;;5053580;28;20025;-68
2021/05/05 08:31:24;;;;;;;2.05;0.80;;;8.30;62.50;;;;;;5073432;28;20054;-68
2021/05/05 08:33:50;;;;;;;7.45;1.15;;;7.70;63.60;;;;;;5073411;28;20059;-68
2021/05/05 08:36:16;;;;;;;2.80;0.90;;;7.60;67.20;;;;;;5072021;28;20024;-70
2021/05/05 08:38:42;;;;;;;7.72;1.00;;;7.60;66.10;;;;;;5073340;28;20021;-68
2021/05/05 08:41:11;;;;;;;2.75;1.02;;;7.50;66.10;;;;;;5070783;28;20476;-67
2021/05/05 08:43:37;;;;;;;1.17;0.95;;;7.50;65.90;;;;;;5053652;28;20078;-67
2021/05/05 08:46:06;;;;;;;2.78;1.00;;;7.30;66.00;;;;;;5054985;28;20455;-71
2021/05/05 08:48:32;;;;;;;0.98;0.75;;;7.30;66.90;;;;;;5062947;28;20017;-69
2021/05/05 08:50:59;;;;;;;1.08;0.90;;;7.30;66.30;;;;;;5058727;28;20055;-69
2021/05/05 08:53:25;;;;;;;2.65;0.90;;;7.30;66.30;;;;;;5056040;28;20025;-70
2021/05/05 08:55:51;;;;;;;1.15;0.80;;;7.40;65.60;;;;;;5053678;28;20033;-71
2021/05/05 08:58:17;;;;;;;4.78;1.13;;;7.30;64.90;;;;;;5067449;28;20060;-71
2021/05/05 09:00:43;;;;;;;2.10;1.10;;;7.20;65.50;;;;;;5073275;28;20024;-72
2021/05/05 09:03:09;;;;;;;7.93;1.15;;;7.20;66.00;;;;;;5072909;28;20464;-72
2021/05/05 09:05:46;;;;;;;22.67;1.42;;;7.00;64.60;;;;;;5071864;28;20017;-72
2021/05/05 09:08:12;;;;;;;6.43;1.10;;;6.80;66.10;;;;;;5080842;28;20028;-72
2021/05/05 09:10:52;;;;;;;6.63;1.40;;;6.70;66.00;;;;;;5072170;28;20487;-72
2021/05/05 09:13:23;;;;;;;8.48;1.95;;;6.70;66.20;;;;;;5072974;28;20029;-72
2021/05/05 09:16:06;;;;;;;4.10;1.20;;;6.70;67.30;;;;;;5072977;28;20016;-72
2021/05/05 09:18:57;;;;;;;3.03;0.80;;;6.90;66.50;;;;;;5072815;28;20441;-72
2021/05/05 09:21:25;;;;;;;3.13;0.95;;;6.80;65.60;;;;;;5064709;28;20025;-72
2021/05/05 09:23:50;;;;;;;7.22;0.93;;;6.90;66.10;;;;;;5073006;28;20074;-71
2021/05/05 09:26:35;;;;;;;1.10;1.00;;;6.90;66.40;;;;;;5063326;28;20021;-73
2021/05/05 09:29:01;;;;;;;4.70;1.17;;;6.80;65.70;;;;;;5067283;28;20079;-73
2021/05/05 09:31:38;;;;;;;1.92;0.90;;;6.70;66.00;;;;;;5065961;28;20049;-74
2021/05/05 09:34:07;;;;;;;2.80;1.00;;;6.70;65.90;;;;;;5066678;28;20028;-72
2021/05/05 09:36:33;;;;;;;3.35;1.35;;;6.80;65.00;;;;;;5065955;28;20029;-72
2021/05/05 09:39:02;;;;;;;2.38;1.10;;;6.60;64.90;;;;;;5052011;28;20503;-73
2021/05/05 09:41:33;;;;;;;3.95;1.10;;;6.50;64.60;;;;;;5055013;28;20108;-71
2021/05/05 09:44:07;;;;;;;4.63;0.98;;;6.50;66.20;;;;;;5054492;28;20029;-69
2021/05/05 09:46:45;;;;;;;23.88;3.15;;;6.90;72.80;;;;;;5071375;28;20020;-71
2021/05/05 09:49:25;;;;;;;12.38;1.67;;;6.80;66.40;;;;;;5072130;28;20580;-69
2021/05/05 09:52:00;;;;;;;2.73;1.10;;;7.30;74.50;;;;;;5057102;28;20031;-69
2021/05/05 09:54:37;;;;;;;1.30;0.90;;;7.40;66.00;;;;;;5062366;28;20473;-70
2021/05/05 09:57:24;;;;;;;14.30;1.08;;;7.10;65.70;;;;;;5063556;28;20106;-69
2021/05/05 10:00:10;;;;;;;8.68;1.52;;;6.90;67.50;;;;;;5071529;28;20113;-69
2021/05/05 10:02:47;;;;;;;9.52;1.20;;;6.80;67.30;;;;;;5062650;28;20024;-69
2021/05/05 10:05:17;;;;;;;28.42;2.45;;;6.60;66.90;;;;;;5057081;28;20029;-69
2021/05/05 10:07:55;;;;;;;;;;;6.50;69.20;;;;;;5067143;28;20391;-69
2021/05/05 10:10:25;;;;;;;7.50;1.35;;;6.40;70.00;;;;;;5061735;28;19956;-69
2021/05/05 10:12:52;;;;;;;3.25;1.23;;;6.30;70.90;;;;;;5066767;28;20024;-69
2021/05/05 10:15:18;;;;;;;1.95;1.20;;;6.30;71.50;;;;;;5057419;28;20029;-68
2021/05/05 10:17:52;;;;;;;5.40;0.90;;;6.40;70.80;;;;;;5070289;28;20024;-69
2021/05/05 10:20:20;;;;;;;1.55;0.98;;;6.30;70.60;;;;;;5066657;28;20126;-69
2021/05/05 10:22:46;;;;;;;5.07;1.38;;;6.30;70.90;;;;;;5071340;28;20028;-69
2021/05/05 10:25:17;;;;;;;6.93;1.30;;;6.30;71.20;;;;;;5066232;28;20131;-68
2021/05/05 10:27:43;;;;;;;9.70;1.20;;;6.20;70.80;;;;;;5071134;28;20023;-68
2021/05/05 10:30:13;;;;;;;5.80;1.05;;;6.20;70.30;;;;;;5071221;28;20028;-69
2021/05/05 10:32:44;;;;;;;4.63;1.20;;;6.20;68.90;;;;;;5071032;28;20020;-69
2021/05/05 10:35:14;;;;;;;13.70;1.40;;;6.10;69.60;;;;;;5071172;28;20044;-69
2021/05/05 10:37:44;;;;;;;8.57;1.30;;;6.10;69.90;;;;;;5071350;28;20033;-68
2021/05/05 10:40:17;;;;;;;4.00;1.50;;;6.00;70.00;;;;;;5069773;28;20473;-69
2021/05/05 10:42:58;;;;;;;2.50;1.10;;;5.90;70.10;;;;;;5070986;28;20036;-69
2021/05/05 10:45:33;;;;;;;10.95;1.40;;;6.00;70.10;;;;;;5071131;28;20169;-69
2021/05/05 10:48:13;;;;;;;8.52;1.40;;;5.90;69.20;;;;;;5070698;28;20296;-69
2021/05/05 10:50:49;;;;;;;;;;;5.80;69.70;;;;;;5060510;28;20036;-69
2021/05/05 10:53:16;;;;;;;3.60;0.88;;;5.90;67.90;;;;;;5069200;28;20291;-69
2021/05/05 10:55:45;;;;;;;5.45;1.15;;;6.00;67.40;;;;;;5070815;28;20467;-68
2021/05/05 10:58:31;;;;;;;38.17;2.25;;;6.00;66.60;;;;;;5070661;28;20068;-68
2021/05/05 11:01:05;;;;;;;6.28;1.13;;;5.90;65.80;;;;;;5071036;28;20056;-69
2021/05/05 11:03:58;;;;;;;8.30;1.20;;;6.00;65.20;;;;;;5069739;28;20044;-68
2021/05/05 11:06:33;;;;;;;10.73;2.85;;;6.00;64.70;;;;;;5068889;28;20033;-69
2021/05/05 11:09:11;;;;;;;0.88;0.77;;;6.00;61.50;;;;;;5070652;28;20035;-69
2021/05/05 11:11:38;;;;;;;5.40;1.05;;;6.00;61.10;;;;;;5070502;28;20071;-69
2021/05/05 11:14:04;;;;;;;17.38;1.35;;;6.00;61.40;;;;;;5069664;28;20025;-69
2021/05/05 11:16:51;;;;;;;3.85;1.10;;;6.00;61.80;;;;;;5070464;28;20445;-69
2021/05/05 11:19:41;;;;;;;22.27;2.15;;;6.10;62.70;;;;;;5062970;28;20060;-69
2021/05/05 11:22:22;;;;;;;6.22;1.30;;;6.10;63.20;;;;;;5060050;28;20073;-73
2021/05/05 11:24:50;;;;;;;2.58;0.95;;;6.00;63.90;;;;;;5058014;28;20514;-70
2021/05/05 11:27:18;;;;;;;1.45;1.00;;;5.80;64.20;;;;;;5056302;28;20104;-69
2021/05/05 11:29:53;;;;;;;10.50;1.30;;;5.80;64.40;;;;;;5074816;28;20033;-70
2021/05/05 11:32:18;;;;;;;6.82;1.00;;;5.90;65.40;;;;;;5074347;28;20520;-69
2021/05/05 11:34:47;;;;;;;4.35;1.02;;;6.00;63.70;;;;;;5068458;28;20029;-69
2021/05/05 11:37:22;;;;;;;21.13;1.88;;;6.00;64.60;;;;;;5066577;28;20024;-69
2021/05/05 11:39:52;;;;;;;2.72;0.98;;;5.80;60.50;;;;;;5074339;28;20016;-69
2021/05/05 11:42:23;;;;;;;14.60;1.48;;;5.60;60.30;;;;;;5074348;28;20025;-69
2021/05/05 11:44:51;;;;;;;2.33;0.90;;;5.60;62.50;;;;;;5074033;28;20036;-69
2021/05/05 11:47:37;;;;;;;2.85;1.13;;;5.50;62.60;;;;;;5074021;28;20020;-69
2021/05/05 11:50:06;;;;;;;6.18;0.98;;;5.40;63.20;;;;;;5073835;28;20494;-70
2021/05/05 11:52:36;;;;;;;2.90;1.08;;;5.50;64.20;;;;;;5072755;28;20028;-69
2021/05/05 11:55:16;;;;;;;1.25;0.90;;;5.60;62.80;;;;;;5073825;28;20099;-69
2021/05/05 11:57:51;;;;;;;2.50;1.20;;;5.50;62.70;;;;;;5074022;28;20051;-69
2021/05/05 12:00:33;;;;;;;1.25;1.02;;;5.60;64.10;;;;;;5059906;28;20085;-70
2021/05/05 12:03:04;;;;;;;9.50;1.20;;;5.50;62.60;;;;;;5073769;28;20017;-69
2021/05/05 12:05:37;;;;;;;3.30;1.10;;;5.50;63.00;;;;;;5073747;28;20028;-69
2021/05/05 12:08:20;;;;;;;5.95;1.33;;;5.60;63.10;;;;;;5073860;28;20093;-69
2021/05/05 12:10:55;;;;;;;4.22;0.93;;;5.70;61.70;;;;;;5065469;28;20098;-69
2021/05/05 12:13:22;;;;;;;5.63;1.27;;;5.60;60.80;;;;;;5069319;28;20545;-69
2021/05/05 12:16:00;;;;;;;5.93;1.00;;;5.60;60.30;;;;;;5073483;28;20463;-69
2021/05/05 12:18:37;;;;;;;2.47;0.90;;;5.50;58.90;;;;;;5073583;28;20503;-69
2021/05/05 12:21:12;;;;;;;3.15;1.02;;;5.60;59.70;;;;;;5073574;28;20025;-69
2021/05/05 12:23:42;;;;;;;5.97;1.17;;;5.70;59.70;;;;;;5073543;28;20081;-69
2021/05/05 12:26:18;;;;;;;18.67;1.52;;;5.80;59.10;;;;;;5068426;28;20020;-69
2021/05/05 12:28:46;;;;;;;12.35;1.27;;;5.80;57.70;;;;;;5065699;28;20451;-69
2021/05/05 12:31:17;;;;;;;3.25;0.90;;;5.70;56.40;;;;;;5068775;28;20150;-69
2021/05/05 12:33:44;;;;;;;2.90;1.10;;;5.70;56.60;;;;;;5064982;28;20024;-69
2021/05/05 12:36:11;;;;;;;9.77;1.30;;;5.60;57.00;;;;;;5073002;28;20094;-69
2021/05/05 12:38:45;;;;;;;3.65;1.30;;;5.60;56.70;;;;;;5072730;28;20027;-69
2021/05/05 12:41:14;;;;;;;5.28;0.90;;;5.50;57.10;;;;;;5072779;28;20029;-69
2021/05/05 12:43:40;;;;;;;1.33;0.90;;;5.60;58.50;;;;;;5073553;28;20029;-69
2021/05/05 12:46:26;;;;;;;3.30;1.25;;;5.80;58.20;;;;;;5072878;28;20349;-69
2021/05/05 12:48:54;;;;;;;7.15;1.20;;;5.90;57.90;;;;;;5073115;28;20032;-69
2021/05/05 12:51:23;;;;;;;3.50;1.20;;;5.80;56.80;;;;;;5072699;28;20375;-72
2021/05/05 12:54:02;;;;;;;3.03;1.08;;;5.70;57.20;;;;;;5062105;28;20013;-67
2021/05/05 12:56:40;;;;;;;3.40;1.20;;;5.70;57.10;;;;;;5052587;28;20048;-68
2021/05/05 12:59:08;;;;;;;3.85;1.13;;;5.80;57.20;;;;;;5056786;28;20044;-68
2021/05/05 13:01:33;;;;;;;7.78;1.75;;;5.80;56.60;;;;;;5056523;28;20021;-68
2021/05/05 13:04:00;;;;;;;5.75;1.33;;;5.70;56.00;;;;;;5054260;28;20017;-69
2021/05/05 13:06:39;;;;;;;4.28;1.17;;;5.50;56.90;;;;;;5055121;28;20544;-68
2021/05/05 13:09:18;;;;;;;6.35;2.22;;;5.60;57.30;;;;;;5060957;28;20017;-68
2021/05/05 13:11:48;;;;;;;4.03;1.10;;;5.70;57.50;;;;;;5069268;28;20062;-67
2021/05/05 13:14:28;;;;;;;7.18;1.70;;;5.70;57.00;;;;;;5054438;28;20032;-67
2021/05/05 13:17:32;;;;;;;1.25;1.08;;;5.80;56.60;;;;;;5053674;28;20437;-67
2021/05/05 13:20:47;;;;;;;1.92;1.13;;;5.70;55.80;;;;;;5059298;28;20028;-68
2021/05/05 13:31:25;;;;;;;5.65;1.45;;;5.80;56.80;;;;;;5056094;28;20101;-68
2021/05/05 13:34:06;;;;;;;5.20;1.55;;;5.70;56.10;;;;;;5055156;28;20013;-68
2021/05/05 13:36:55;;;;;;;4.95;1.60;;;5.60;55.80;;;;;;5067623;28;20025;-68
2021/05/05 13:39:22;;;;;;;23.50;2.47;;;5.50;56.00;;;;;;5054865;28;20013;-68
2021/05/05 13:42:01;;;;;;;3.97;1.60;;;5.50;56.90;;;;;;5064999;28;20095;-68
2021/05/05 13:44:34;;;;;;;8.07;1.52;;;5.50;56.90;;;;;;5054923;28;20009;-68
2021/05/05 13:49:33;;;;;;;3.50;1.60;;;5.60;57.70;;;;;;5053997;28;20436;-66
2021/05/05 13:52:04;;;;;;;11.10;2.00;;;5.70;57.80;;;;;;5051844;28;20020;-68
2021/05/05 13:54:30;;;;;;;10.13;1.60;;;5.70;56.70;;;;;;5054782;28;20255;-68
2021/05/05 13:56:56;;;;;;;2.58;1.30;;;5.80;61.00;;;;;;5062469;28;20541;-68
2021/05/05 13:59:22;;;;;;;4.20;1.35;;;6.40;58.60;;;;;;5065463;28;20123;-68
2021/05/05 14:01:48;;;;;;;4.40;1.45;;;6.20;56.40;;;;;;5054076;28;20028;-69
2021/05/05 14:04:14;;;;;;;10.05;1.77;;;6.00;56.80;;;;;;5054800;28;20040;-68
2021/05/05 14:06:45;;;;;;;3.92;1.38;;;5.80;57.10;;;;;;5064749;28;20032;-68
2021/05/05 14:09:11;;;;;;;2.28;1.20;;;5.70;57.60;;;;;;5059943;28;20039;-69
2021/05/05 14:11:37;;;;;;;1.95;1.35;;;5.70;57.60;;;;;;5051751;28;20040;-68
2021/05/05 14:14:03;;;;;;;2.30;1.30;;;5.60;57.50;;;;;;5052549;28;20200;-69
2021/05/05 14:16:29;;;;;;;2.20;1.15;;;5.60;58.40;;;;;;5053460;28;20522;-69
2021/05/05 14:18:56;;;;;;;3.22;1.38;;;5.50;57.90;;;;;;5052102;28;20017;-69
2021/05/05 14:21:22;;;;;;;2.88;1.58;;;5.50;58.20;;;;;;5053808;28;20028;-69
2021/05/05 14:23:47;;;;;;;4.32;1.40;;;5.60;58.60;;;;;;5050960;28;20029;-69
2021/05/05 14:26:14;;;;;;;2.95;1.10;;;5.40;58.30;;;;;;5051432;28;20202;-69
2021/05/05 14:28:40;;;;;;;2.13;1.35;;;5.40;58.60;;;;;;5062386;28;20052;-69
2021/05/05 14:31:10;;;;;;;3.35;1.50;;;5.40;59.10;;;;;;5066110;28;20020;-69
2021/05/05 14:33:37;;;;;;;4.80;1.63;;;5.40;59.80;;;;;;5063155;28;20562;-69
2021/05/05 14:36:03;;;;;;;2.38;1.30;;;5.40;59.20;;;;;;5071375;28;20151;-69
2021/05/05 14:38:32;;;;;;;4.25;1.50;;;5.30;59.20;;;;;;5071139;28;20016;-69
2021/05/05 14:41:00;;;;;;;9.02;1.40;;;5.30;58.90;;;;;;5071035;28;20515;-70
2021/05/05 14:43:31;;;;;;;2.55;1.20;;;5.20;58.60;;;;;;5059744;28;20029;-70
2021/05/05 14:46:14;;;;;;;12.48;1.55;;;5.20;58.70;;;;;;5056390;28;20086;-71
2021/05/05 14:48:40;;;;;;;9.77;1.60;;;5.20;59.00;;;;;;5068599;28;20044;-69
2021/05/05 14:51:06;;;;;;;8.52;1.70;;;5.30;59.10;;;;;;5071140;28;20086;-68
2021/05/05 14:53:32;;;;;;;2.08;1.45;;;5.30;59.30;;;;;;5066335;28;20021;-69
2021/05/05 14:55:58;;;;;;;1.83;1.30;;;5.30;58.90;;;;;;5071034;28;20077;-69
2021/05/05 14:58:40;;;;;;;2.45;1.40;;;5.30;58.40;;;;;;5058854;28;20094;-70
2021/05/05 15:01:06;;;;;;;2.95;1.40;;;5.30;58.10;;;;;;5070073;28;20021;-68
2021/05/05 15:03:31;;;;;;;3.50;1.63;;;5.30;57.60;;;;;;5064511;28;20525;-69
2021/05/05 15:06:01;;;;;;;8.02;1.75;;;5.20;58.40;;;;;;5061317;28;20096;-66
2021/05/05 15:08:42;;;;;;;6.22;1.60;;;5.10;58.90;;;;;;5066816;28;20479;-69
2021/05/05 15:30:02;;;;;;;2.47;1.42;;;5.10;58.30;;;;;;5052017;28;20036;-68
2021/05/05 15:35:33;;;;;;;2.58;1.40;;;5.00;58.40;;;;;;5052597;28;20043;-68
2021/05/05 15:38:11;;;;;;;5.25;1.52;;;5.10;58.90;;;;;;5054734;28;20100;-68
2021/05/05 15:45:45;;;;;;;1.92;1.38;;;5.00;59.60;;;;;;5050873;28;20392;-69
2021/05/05 15:48:11;;;;;;;1.58;1.20;;;5.00;59.90;;;;;;5049888;28;20017;-68
2021/05/05 15:50:37;;;;;;;1.70;1.40;;;5.10;60.60;;;;;;5052676;28;20025;-68
2021/05/05 15:55:42;;;;;;;2.53;1.48;;;5.00;61.70;;;;;;5052138;28;20035;-68
2021/05/05 15:58:12;;;;;;;3.60;1.55;;;4.90;62.10;;;;;;5052234;28;20048;-68
2021/05/05 16:00:52;;;;;;;1.40;1.30;;;4.90;62.40;;;;;;5053661;28;20040;-67
2021/05/05 16:12:13;;;;;;;6.32;2.45;;;4.90;65.10;;;;;;5047809;28;20140;-68
2021/05/05 16:16:53;;;;;;;4.65;1.50;;;4.80;65.10;;;;;;5057337;28;20560;-67
2021/05/05 16:19:23;;;;;;;1.90;1.60;;;4.80;65.10;;;;;;5052508;28;20027;-67
2021/05/05 16:21:59;;;;;;;2.83;1.67;;;4.80;64.60;;;;;;5058311;28;20055;-68
2021/05/05 16:51:53;;;;;;;2.85;1.75;;;5.40;62.70;;;;;;5058393;28;20116;-66
2021/05/05 16:54:26;;;;;;;2.65;1.77;;;5.10;63.20;;;;;;5059708;28;20025;-66
2021/05/05 17:09:58;;;;;;;3.75;2.65;;;4.90;63.00;;;;;;5055277;28;20036;-68
2021/05/05 17:12:25;;;;;;;2.85;2.10;;;4.90;62.50;;;;;;5055161;28;20028;-68
2021/05/05 17:15:15;;;;;;;6.53;1.88;;;4.90;62.80;;;;;;5054907;28;20044;-69
2021/05/05 17:22:55;;;;;;;3.47;1.75;;;4.80;63.50;;;;;;5052815;28;20074;-69
2021/05/05 17:25:26;;;;;;;7.88;2.10;;;4.70;63.80;;;;;;5052558;28;20620;-68
2021/05/05 17:27:59;;;;;;;6.05;1.88;;;4.70;64.20;;;;;;5070449;28;20406;-67
2021/05/05 17:46:48;;;;;;;3.67;1.70;;;4.60;65.90;;;;;;5072103;28;20059;-66
2021/05/05 18:09:56;;;;;;;3.17;1.70;;;4.60;65.90;;;;;;5070613;28;20039;-66
2021/05/05 18:19:10;;;;;;;1.98;1.67;;;4.60;68.50;;;;;;5058479;28;20167;-66
2021/05/05 18:21:42;;;;;;;5.18;2.28;;;4.60;68.80;;;;;;5071589;28;20013;-66
2021/05/05 18:24:16;;;;;;;2.08;1.80;;;4.50;68.80;;;;;;5071951;28;20024;-66
2021/05/05 18:31:59;;;;;;;3.15;1.92;;;4.40;69.50;;;;;;5060689;28;20494;-68
2021/05/05 18:34:25;;;;;;;2.60;2.00;;;4.50;70.90;;;;;;5071140;28;20032;-67
2021/05/05 18:36:52;;;;;;;2.80;1.83;;;4.60;69.60;;;;;;5070984;28;20031;-67
2021/05/05 18:39:23;;;;;;;5.53;2.10;;;4.50;69.10;;;;;;5071199;28;20023;-68
2021/05/05 18:59:19;;;;;;;1.92;1.60;;;4.30;69.50;;;;;;5071007;28;20068;-67
2021/05/05 19:15:34;;;;;;;5.85;1.83;;;4.10;69.00;;;;;;5051107;28;20032;-67
2021/05/05 20:49:26;;;;;;;3.22;1.85;;;4.10;78.10;;;;;;5073729;28;20047;-68
2021/05/05 22:41:28;;;;;;;5.28;2.50;;;3.60;79.90;;;;;;5071673;28;20085;-67
2021/05/05 22:49:54;;;;;;;;;;;3.50;80.40;;;;;;5072270;28;20031;-66
2021/05/05 23:26:23;;;;;;;;;;;3.40;85.10;;;;;;5070990;28;20471;-67
2021/05/05 23:29:05;;;;;;;2.97;2.15;;;3.30;88.60;;;;;;5068474;28;19916;-67
